createdAt,value
2022-10-24T00:00:31.637Z,15.65
2022-10-24T00:01:31.431Z,15.55
2022-10-24T00:02:31.821Z,15.63
2022-10-24T00:03:31.678Z,15.55
2022-10-24T00:04:31.409Z,15.58
2022-10-24T00:05:31.740Z,15.65
2022-10-24T00:06:31.395Z,15.63
2022-10-24T00:07:31.131Z,15.65
2022-10-24T00:08:31.121Z,15.55
2022-10-24T00:09:31.627Z,15.7
2022-10-24T00:10:31.616Z,15.62
2022-10-24T00:11:31.359Z,15.68
2022-10-24T00:12:31.096Z,15.67
2022-10-24T00:13:31.343Z,15.62
2022-10-24T00:14:31.330Z,15.7
2022-10-24T00:15:31.326Z,15.56
2022-10-24T00:16:31.570Z,15.63
2022-10-24T00:17:31.309Z,15.49
2022-10-24T00:18:31.562Z,15.47
2022-10-24T00:19:31.292Z,15.53
2022-10-24T00:20:31.298Z,15.44
2022-10-24T00:21:31.601Z,15.43
2022-10-24T00:22:31.528Z,15.37
2022-10-24T00:23:31.517Z,15.34
2022-10-24T00:24:31.254Z,15.31
2022-10-24T00:25:31.243Z,15.23
2022-10-24T00:26:31.494Z,15.08
2022-10-24T00:27:31.241Z,15.05
2022-10-24T00:28:31.226Z,15.05
2022-10-24T00:29:31.470Z,14.98
2022-10-24T00:30:31.455Z,15.01
2022-10-24T00:31:30.938Z,14.83
2022-10-24T00:32:31.184Z,14.83
2022-10-24T00:33:30.920Z,14.71
2022-10-24T00:34:31.168Z,14.71
2022-10-24T00:35:31.161Z,14.64
2022-10-24T00:36:31.155Z,14.52
2022-10-24T00:37:31.488Z,14.52
2022-10-24T00:38:31.138Z,14.56
2022-10-24T00:39:31.387Z,14.46
2022-10-24T00:40:31.122Z,14.49
2022-10-24T00:41:31.113Z,14.51
2022-10-24T00:42:31.360Z,14.49
2022-10-24T00:43:31.097Z,14.39
2022-10-24T00:44:31.348Z,14.46
2022-10-24T00:45:31.012Z,14.45
2022-10-24T00:46:31.325Z,14.34
2022-10-24T00:47:31.060Z,14.39
2022-10-24T00:48:30.798Z,14.34
2022-10-24T00:49:31.295Z,14.36
2022-10-24T00:50:31.038Z,14.28
2022-10-24T00:51:31.031Z,14.36
2022-10-24T00:52:31.028Z,14.34
2022-10-24T00:53:31.341Z,14.34
2022-10-24T00:54:31.252Z,14.26
2022-10-24T00:55:30.988Z,14.28
2022-10-24T00:56:31.238Z,14.33
2022-10-24T00:57:31.237Z,14.34
2022-10-24T00:58:30.966Z,14.27
2022-10-24T00:59:31.214Z,14.28
2022-10-24T01:00:31.198Z,14.31
2022-10-24T01:01:30.897Z,14.23
2022-10-24T01:02:31.184Z,14.2
2022-10-24T01:03:30.917Z,14.26
2022-10-24T01:04:30.701Z,14.16
2022-10-24T01:05:30.649Z,14.13
2022-10-24T01:06:30.897Z,14.23
2022-10-24T01:07:30.886Z,14.11
2022-10-24T01:08:30.879Z,14.12
2022-10-24T01:09:31.198Z,14.08
2022-10-24T01:10:31.049Z,14.09
2022-10-24T01:11:30.596Z,14.11
2022-10-24T01:12:30.852Z,14.02
2022-10-24T01:13:30.835Z,14.01
2022-10-24T01:14:30.823Z,13.94
2022-10-24T01:15:30.560Z,13.88
2022-10-24T01:16:30.802Z,13.81
2022-10-24T01:17:30.797Z,13.86
2022-10-24T01:18:31.048Z,13.75
2022-10-24T01:19:30.790Z,13.7
2022-10-24T01:20:30.767Z,13.7
2022-10-24T01:21:30.510Z,13.73
2022-10-24T01:22:31.006Z,13.65
2022-10-24T01:23:30.751Z,13.72
2022-10-24T01:24:30.728Z,13.58
2022-10-24T01:25:31.054Z,13.54
2022-10-24T01:26:30.710Z,13.57
2022-10-24T01:27:30.708Z,13.51
2022-10-24T01:28:30.694Z,13.55
2022-10-24T01:29:30.939Z,13.51
2022-10-24T01:30:30.678Z,13.48
2022-10-24T01:31:30.940Z,13.48
2022-10-24T01:32:30.657Z,13.51
2022-10-24T01:34:30.636Z,13.48
2022-10-24T01:36:30.618Z,13.45
2022-10-24T01:37:30.868Z,13.4
2022-10-24T01:38:30.857Z,13.35
2022-10-24T01:39:30.596Z,13.31
2022-10-24T01:40:30.685Z,13.35
2022-10-24T01:41:30.916Z,13.35
2022-10-24T01:42:30.573Z,13.28
2022-10-24T01:43:30.580Z,13.21
2022-10-24T01:44:30.796Z,13.24
2022-10-24T01:45:30.281Z,13.25
2022-10-24T01:46:30.535Z,13.25
2022-10-24T01:47:30.262Z,13.2
2022-10-24T01:48:30.765Z,13.13
2022-10-24T01:49:30.506Z,13.16
2022-10-24T01:50:30.486Z,13.14
2022-10-24T01:51:30.741Z,13.06
2022-10-24T01:52:30.729Z,12.99
2022-10-24T01:53:30.719Z,12.99
2022-10-24T01:54:30.451Z,12.92
2022-10-24T01:55:30.700Z,12.94
2022-10-24T01:56:30.687Z,12.96
2022-10-24T01:57:30.761Z,12.96
2022-10-24T01:58:30.414Z,12.98
2022-10-24T01:59:30.660Z,12.94
2022-10-24T02:00:30.714Z,12.96
2022-10-24T02:01:30.600Z,12.91
2022-10-24T02:02:30.636Z,12.89
2022-10-24T02:03:30.109Z,12.81
2022-10-24T02:04:30.610Z,12.84
2022-10-24T02:05:30.346Z,12.83
2022-10-24T02:06:30.337Z,12.76
2022-10-24T02:07:30.324Z,12.76
2022-10-24T02:08:30.314Z,12.76
2022-10-24T02:09:30.050Z,12.7
2022-10-24T02:10:30.563Z,12.62
2022-10-24T02:11:30.548Z,12.61
2022-10-24T02:12:30.530Z,12.61
2022-10-24T02:13:30.595Z,12.59
2022-10-24T02:14:30.260Z,12.55
2022-10-24T02:15:30.251Z,12.55
2022-10-24T02:16:30.493Z,12.63
2022-10-24T02:17:31.038Z,12.55
2022-10-24T02:18:30.220Z,12.51
2022-10-24T02:19:30.471Z,12.58
2022-10-24T02:20:29.944Z,12.51
2022-10-24T02:21:30.453Z,12.43
2022-10-24T02:22:30.436Z,12.52
2022-10-24T02:23:29.921Z,12.41
2022-10-24T02:24:30.157Z,12.47
2022-10-24T02:25:30.146Z,12.43
2022-10-24T02:26:30.145Z,12.45
2022-10-24T02:27:30.130Z,12.45
2022-10-24T02:28:30.384Z,12.43
2022-10-24T02:29:30.440Z,12.4
2022-10-24T02:30:30.358Z,12.4
2022-10-24T02:31:30.095Z,12.41
2022-10-24T02:32:30.350Z,12.33
2022-10-24T02:33:30.072Z,12.44
2022-10-24T02:34:29.803Z,12.41
2022-10-24T02:35:30.051Z,12.36
2022-10-24T02:36:29.785Z,12.43
2022-10-24T02:37:29.771Z,12.37
2022-10-24T02:38:30.022Z,12.41
2022-10-24T02:39:30.008Z,12.43
2022-10-24T02:40:29.999Z,12.37
2022-10-24T02:41:29.734Z,12.4
2022-10-24T02:43:30.224Z,12.4
2022-10-24T02:44:29.957Z,12.44
2022-10-24T02:45:30.276Z,12.4
2022-10-24T02:46:29.943Z,12.45
2022-10-24T02:47:30.184Z,12.4
2022-10-24T02:48:29.661Z,12.41
2022-10-24T02:49:29.906Z,12.44
2022-10-24T02:50:30.147Z,12.4
2022-10-24T02:51:29.884Z,12.43
2022-10-24T02:52:30.138Z,12.45
2022-10-24T02:53:29.607Z,12.44
2022-10-24T02:54:29.853Z,12.36
2022-10-24T02:55:30.115Z,12.4
2022-10-24T02:56:29.576Z,12.45
2022-10-24T02:57:30.079Z,12.38
2022-10-24T02:58:30.072Z,12.28
2022-10-24T02:59:29.809Z,12.25
2022-10-24T03:00:30.363Z,12.26
2022-10-24T03:01:30.491Z,12.31
2022-10-24T03:02:30.029Z,12.31
2022-10-24T03:03:29.509Z,12.31
2022-10-24T03:04:30.013Z,12.28
2022-10-24T03:05:29.743Z,12.31
2022-10-24T03:06:29.731Z,12.26
2022-10-24T03:08:29.721Z,12.22
2022-10-24T03:09:29.711Z,12.26
2022-10-24T03:10:29.943Z,12.23
2022-10-24T03:11:29.683Z,12.28
2022-10-24T03:12:29.666Z,12.37
2022-10-24T03:13:29.917Z,12.22
2022-10-24T03:14:29.903Z,12.33
2022-10-24T03:15:29.902Z,12.33
2022-10-24T03:16:29.884Z,12.29
2022-10-24T03:17:29.945Z,12.29
2022-10-24T03:18:29.606Z,12.31
2022-10-24T03:19:29.601Z,12.29
2022-10-24T03:20:29.332Z,12.37
2022-10-24T03:21:29.833Z,12.31
2022-10-24T03:22:35.311Z,12.38
2022-10-24T03:23:29.305Z,12.31
2022-10-24T03:24:57.720Z,12.29
2022-10-24T03:25:29.540Z,12.28
2022-10-24T03:26:29.777Z,12.33
2022-10-24T03:27:29.515Z,12.33
2022-10-24T03:28:29.505Z,12.34
2022-10-24T03:29:29.495Z,12.33
2022-10-24T03:30:29.225Z,12.18
2022-10-24T03:31:29.233Z,12.22
2022-10-24T03:32:29.194Z,12.25
2022-10-24T03:49:58.721Z,12.33
2022-10-24T03:50:58.387Z,12.31
2022-10-24T03:51:58.613Z,12.36
2022-10-24T03:52:58.602Z,12.31
2022-10-24T03:53:58.597Z,12.28
2022-10-24T03:54:58.326Z,12.29
2022-10-24T03:55:58.619Z,12.29
2022-10-24T03:56:58.294Z,12.25
2022-10-24T03:57:58.279Z,12.22
2022-10-24T03:58:58.283Z,12.2
2022-10-24T03:59:58.252Z,12.28
2022-10-24T04:00:58.759Z,12.26
2022-10-24T04:01:58.378Z,12.22
2022-10-24T04:02:58.477Z,12.25
2022-10-24T04:03:58.209Z,12.22
2022-10-24T04:04:57.947Z,12.33
2022-10-24T04:05:58.519Z,12.29
2022-10-24T04:06:58.181Z,12.33
2022-10-24T04:07:58.167Z,12.29
2022-10-24T04:08:58.156Z,12.33
2022-10-24T04:09:58.402Z,12.4
2022-10-24T04:10:58.195Z,12.34
2022-10-24T04:11:58.124Z,12.4
2022-10-24T04:12:58.115Z,12.53
2022-10-24T04:13:58.265Z,12.56
2022-10-24T04:15:00.937Z,12.61
2022-10-24T04:15:58.335Z,12.65
2022-10-24T04:16:58.322Z,12.58
2022-10-24T04:17:57.798Z,12.66
2022-10-24T04:18:58.052Z,12.77
2022-10-24T04:19:57.777Z,12.73
2022-10-24T04:20:57.769Z,12.76
2022-10-24T04:21:58.339Z,12.78
2022-10-24T04:22:59.125Z,12.81
2022-10-24T04:23:57.995Z,12.86
2022-10-24T04:24:57.980Z,12.73
2022-10-24T04:25:57.966Z,12.8
2022-10-24T04:26:57.960Z,12.73
2022-10-24T04:27:58.206Z,12.71
2022-10-24T04:28:57.940Z,12.66
2022-10-24T04:29:57.933Z,12.66
2022-10-24T04:30:57.921Z,12.65
2022-10-24T04:31:58.162Z,12.66
2022-10-24T04:32:57.894Z,12.61
2022-10-24T04:33:57.901Z,12.69
2022-10-24T04:34:57.876Z,12.59
2022-10-24T04:35:57.867Z,12.62
2022-10-24T04:36:58.116Z,12.59
2022-10-24T04:37:58.174Z,12.65
2022-10-24T04:38:58.027Z,12.55
2022-10-24T04:39:57.825Z,12.61
2022-10-24T04:40:57.822Z,12.58
2022-10-24T04:41:58.072Z,12.66
2022-10-24T04:42:57.792Z,12.65
2022-10-24T04:43:57.793Z,12.59
2022-10-24T04:44:57.515Z,12.65
2022-10-24T04:45:57.760Z,12.58
2022-10-24T04:46:57.749Z,12.59
2022-10-24T04:47:57.492Z,12.58
2022-10-24T04:48:57.472Z,12.59
2022-10-24T04:49:57.726Z,12.58
2022-10-24T04:50:57.970Z,12.65
2022-10-24T04:51:57.970Z,12.56
2022-10-24T04:52:57.686Z,12.53
2022-10-24T04:53:58.061Z,12.61
2022-10-24T04:54:57.667Z,12.53
2022-10-24T04:55:57.922Z,12.59
2022-10-24T04:56:57.903Z,12.56
2022-10-24T04:57:57.638Z,12.56
2022-10-24T04:58:57.630Z,12.47
2022-10-24T04:59:57.875Z,12.56
2022-10-24T05:00:57.608Z,12.51
2022-10-24T05:01:57.822Z,12.52
2022-10-24T05:03:01.452Z,12.61
2022-10-24T05:03:57.862Z,12.63
2022-10-24T05:04:57.315Z,12.58
2022-10-24T05:05:57.818Z,12.51
2022-10-24T05:06:57.291Z,12.52
2022-10-24T05:07:57.556Z,12.53
2022-10-24T05:08:57.784Z,12.56
2022-10-24T05:09:57.847Z,12.45
2022-10-24T05:10:57.504Z,12.4
2022-10-24T05:11:57.496Z,12.38
2022-10-24T05:12:57.740Z,12.47
2022-10-24T05:13:57.221Z,12.52
2022-10-24T05:14:57.213Z,12.58
2022-10-24T05:15:57.457Z,12.56
2022-10-24T05:16:57.189Z,12.53
2022-10-24T05:17:57.439Z,12.51
2022-10-24T05:18:57.420Z,12.56
2022-10-24T05:19:57.413Z,12.55
2022-10-24T05:20:57.158Z,12.53
2022-10-24T05:21:57.141Z,12.56
2022-10-24T05:22:57.386Z,12.52
2022-10-24T05:23:57.120Z,12.59
2022-10-24T05:24:57.359Z,12.53
2022-10-24T05:25:57.695Z,12.56
2022-10-24T05:26:57.084Z,12.55
2022-10-24T05:27:57.591Z,12.52
2022-10-24T05:28:57.698Z,12.61
2022-10-24T05:29:57.579Z,12.52
2022-10-24T05:30:57.809Z,12.58
2022-10-24T05:31:58.066Z,12.51
2022-10-24T05:32:58.051Z,12.65
2022-10-24T05:33:57.789Z,12.55
2022-10-24T05:34:57.516Z,12.59
2022-10-24T05:35:58.077Z,12.63
2022-10-24T05:36:57.746Z,12.62
2022-10-24T05:37:58.001Z,12.65
2022-10-24T05:38:57.728Z,12.58
2022-10-24T05:39:57.727Z,12.56
2022-10-24T05:40:57.501Z,12.51
2022-10-24T05:42:00.332Z,12.53
2022-10-24T05:42:57.688Z,12.55
2022-10-24T05:43:57.930Z,12.55
2022-10-24T05:44:57.921Z,12.52
2022-10-24T05:45:57.696Z,12.53
2022-10-24T05:46:57.400Z,12.51
2022-10-24T05:47:57.376Z,12.4
2022-10-24T05:48:57.374Z,12.51
2022-10-24T05:49:57.618Z,12.43
2022-10-24T05:50:57.894Z,12.44
2022-10-24T05:51:57.851Z,12.37
2022-10-24T05:52:57.905Z,12.44
2022-10-24T05:53:57.572Z,12.44
2022-10-24T05:55:13.473Z,12.45
2022-10-24T05:55:57.807Z,12.41
2022-10-24T05:56:57.542Z,12.47
2022-10-24T05:57:57.898Z,12.37
2022-10-24T05:58:57.535Z,12.41
2022-10-24T05:59:57.763Z,12.4
2022-10-24T06:00:59.165Z,12.44
2022-10-24T06:01:58.091Z,12.44
2022-10-24T06:02:57.498Z,12.4
2022-10-24T06:03:57.218Z,12.45
2022-10-24T06:04:57.736Z,12.45
2022-10-24T06:05:57.465Z,12.45
2022-10-24T06:06:57.470Z,12.44
2022-10-24T06:07:57.437Z,12.38
2022-10-24T06:08:57.428Z,12.53
2022-10-24T06:09:57.662Z,12.55
2022-10-24T06:10:57.407Z,12.52
2022-10-24T06:11:57.395Z,12.52
2022-10-24T06:12:57.650Z,12.53
2022-10-24T06:13:57.718Z,12.65
2022-10-24T06:14:57.102Z,12.58
2022-10-24T06:15:57.607Z,12.59
2022-10-24T06:16:57.336Z,12.63
2022-10-24T06:17:57.067Z,12.7
2022-10-24T06:18:57.318Z,12.76
2022-10-24T06:19:57.567Z,12.74
2022-10-24T06:21:00.910Z,12.77
2022-10-24T06:21:57.284Z,12.74
2022-10-24T06:22:57.527Z,12.76
2022-10-24T06:23:57.520Z,12.81
2022-10-24T06:24:57.251Z,12.73
2022-10-24T06:25:57.246Z,12.83
2022-10-24T06:26:57.234Z,12.83
2022-10-24T06:27:57.655Z,12.86
2022-10-24T06:28:57.472Z,12.81
2022-10-24T06:29:57.616Z,12.89
2022-10-24T06:30:57.198Z,12.88
2022-10-24T06:31:57.184Z,12.84
2022-10-24T06:32:57.168Z,12.91
2022-10-24T06:33:57.420Z,12.99
2022-10-24T06:34:57.151Z,12.96
2022-10-24T06:35:57.150Z,12.92
2022-10-24T06:36:57.133Z,12.96
2022-10-24T06:37:58.083Z,13.06
2022-10-24T06:38:57.372Z,13.1
2022-10-24T06:39:57.103Z,13.09
2022-10-24T06:40:57.096Z,13.16
2022-10-24T06:41:57.081Z,13.24
2022-10-24T06:42:57.072Z,13.24
2022-10-24T06:43:57.315Z,13.25
2022-10-24T06:44:56.973Z,13.31
2022-10-24T06:45:57.381Z,13.24
2022-10-24T06:46:57.036Z,13.24
2022-10-24T06:47:59.453Z,13.25
2022-10-24T06:48:57.271Z,13.31
2022-10-24T06:49:57.013Z,13.31
2022-10-24T06:50:56.994Z,13.19
2022-10-24T06:51:57.242Z,13.36
2022-10-24T06:52:57.394Z,13.29
2022-10-24T06:53:57.378Z,13.29
2022-10-24T06:54:57.633Z,13.35
2022-10-24T06:55:57.625Z,13.31
2022-10-24T06:56:57.618Z,13.36
2022-10-24T06:57:57.092Z,13.37
2022-10-24T06:58:57.337Z,13.39
2022-10-24T06:59:57.327Z,13.48
2022-10-24T07:00:57.452Z,13.5
2022-10-24T07:02:00.379Z,13.5
2022-10-24T07:02:57.040Z,13.45
2022-10-24T07:03:57.287Z,13.53
2022-10-24T07:04:57.270Z,13.5
2022-10-24T07:05:57.523Z,13.5
2022-10-24T07:06:57.515Z,13.57
2022-10-24T07:07:57.506Z,13.57
2022-10-24T07:08:56.979Z,13.68
2022-10-24T07:09:57.224Z,13.66
2022-10-24T07:10:57.469Z,13.72
2022-10-24T07:11:57.462Z,13.68
2022-10-24T07:12:56.946Z,13.7
2022-10-24T07:14:05.680Z,13.73
2022-10-24T07:14:57.178Z,13.69
2022-10-24T07:15:57.173Z,13.73
2022-10-24T07:16:56.909Z,13.87
2022-10-24T07:17:57.506Z,13.86
2022-10-24T07:18:57.141Z,13.86
2022-10-24T07:19:57.141Z,13.88
2022-10-24T07:20:57.124Z,13.94
2022-10-24T07:21:57.367Z,13.91
2022-10-24T07:22:57.107Z,14.01
2022-10-24T07:23:57.350Z,13.99
2022-10-24T07:24:57.101Z,13.97
2022-10-24T07:25:57.071Z,13.97
2022-10-24T07:26:57.062Z,13.93
2022-10-24T07:27:57.057Z,14.06
2022-10-24T07:28:57.242Z,14.09
2022-10-24T07:29:57.887Z,14.08
2022-10-24T07:30:57.287Z,14.09
2022-10-24T07:31:57.023Z,14.11
2022-10-24T07:32:57.009Z,14.09
2022-10-24T07:33:57.354Z,14.16
2022-10-24T07:34:57.247Z,14.11
2022-10-24T07:35:56.982Z,14.12
2022-10-24T07:36:57.233Z,14.11
2022-10-24T07:37:56.965Z,14.19
2022-10-24T07:38:57.222Z,14.27
2022-10-24T07:39:56.946Z,14.26
2022-10-24T07:40:56.966Z,14.26
2022-10-24T07:41:57.181Z,14.28
2022-10-24T07:42:57.174Z,14.33
2022-10-24T07:43:56.908Z,14.33
2022-10-24T07:44:57.156Z,14.38
2022-10-24T07:45:57.483Z,14.46
2022-10-24T07:46:57.142Z,14.33
2022-10-24T07:47:56.874Z,14.46
2022-10-24T07:48:56.872Z,14.46
2022-10-24T07:49:57.186Z,14.49
2022-10-24T07:50:56.847Z,14.53
2022-10-24T07:51:56.835Z,14.46
2022-10-24T07:52:56.834Z,14.59
2022-10-24T07:53:56.834Z,14.46
2022-10-24T07:54:57.082Z,14.45
2022-10-24T07:55:56.812Z,14.45
2022-10-24T07:56:58.691Z,14.45
2022-10-24T07:57:57.039Z,14.48
2022-10-24T07:58:57.038Z,14.53
2022-10-24T07:59:56.511Z,14.57
2022-10-24T08:00:57.099Z,14.46
2022-10-24T08:01:56.757Z,14.46
2022-10-24T08:02:57.003Z,14.53
2022-10-24T08:03:56.748Z,14.48
2022-10-24T08:04:56.981Z,14.51
2022-10-24T08:05:57.052Z,14.59
2022-10-24T08:06:56.714Z,14.46
2022-10-24T08:08:36.780Z,14.63
2022-10-24T08:08:56.439Z,14.59
2022-10-24T08:09:56.938Z,14.61
2022-10-24T08:10:56.885Z,14.66
2022-10-24T08:11:56.925Z,14.75
2022-10-24T08:12:56.658Z,14.69
2022-10-24T08:13:56.650Z,14.7
2022-10-24T08:14:56.638Z,14.74
2022-10-24T08:15:56.636Z,14.7
2022-10-24T08:16:56.885Z,14.74
2022-10-24T08:17:56.620Z,14.71
2022-10-24T08:18:56.603Z,14.66
2022-10-24T08:19:56.614Z,14.67
2022-10-24T08:20:56.709Z,14.66
2022-10-24T08:21:56.919Z,14.71
2022-10-24T08:22:56.313Z,14.71
2022-10-24T08:23:56.842Z,14.64
2022-10-24T08:24:56.916Z,14.67
2022-10-24T08:25:56.547Z,14.66
2022-10-24T08:26:56.282Z,14.71
2022-10-24T08:27:56.783Z,14.66
2022-10-24T08:28:56.777Z,14.51
2022-10-24T08:29:56.256Z,14.52
2022-10-24T08:30:56.344Z,14.51
2022-10-24T08:31:56.498Z,14.48
2022-10-24T08:32:56.545Z,14.38
2022-10-24T08:33:56.231Z,14.46
2022-10-24T08:34:56.480Z,14.44
2022-10-24T08:35:56.469Z,14.31
2022-10-24T08:36:56.447Z,14.42
2022-10-24T08:37:56.776Z,14.39
2022-10-24T08:38:56.180Z,14.26
2022-10-24T08:39:56.684Z,14.3
2022-10-24T08:40:56.165Z,14.28
2022-10-24T08:42:02.788Z,14.33
2022-10-24T08:42:56.439Z,14.27
2022-10-24T08:43:56.407Z,14.33
2022-10-24T08:44:56.124Z,14.28
2022-10-24T08:45:56.626Z,14.3
2022-10-24T08:46:56.360Z,14.28
2022-10-24T08:47:56.623Z,14.28
2022-10-24T08:48:56.342Z,14.28
2022-10-24T08:49:56.342Z,14.23
2022-10-24T08:50:56.436Z,14.34
2022-10-24T08:51:56.321Z,14.24
2022-10-24T08:52:56.578Z,14.24
2022-10-24T08:53:56.635Z,14.26
2022-10-24T08:54:56.297Z,14.27
2022-10-24T08:55:56.337Z,14.15
2022-10-24T08:56:56.277Z,14.24
2022-10-24T08:57:56.530Z,14.09
2022-10-24T08:58:56.518Z,14.21
2022-10-24T08:59:56.515Z,14.13
2022-10-24T09:00:56.398Z,14.15
2022-10-24T09:02:01.936Z,14.08
2022-10-24T09:02:57.342Z,14.11
2022-10-24T09:04:01.779Z,14.16
2022-10-24T09:04:57.381Z,14.08
2022-10-24T09:05:57.169Z,14.16
2022-10-24T09:06:56.858Z,14.11
2022-10-24T09:07:57.363Z,14.09
2022-10-24T09:08:57.350Z,14.11
2022-10-24T09:09:57.406Z,14.11
2022-10-24T09:10:57.464Z,14.16
2022-10-24T09:11:57.066Z,14.12
2022-10-24T09:12:57.063Z,14.09
2022-10-24T09:13:57.063Z,14.13
2022-10-24T09:14:57.301Z,14.09
2022-10-24T09:15:57.307Z,14.12
2022-10-24T09:16:57.280Z,14.13
2022-10-24T09:17:57.280Z,14.09
2022-10-24T09:18:57.258Z,14.12
2022-10-24T09:19:56.742Z,14.09
2022-10-24T09:20:57.310Z,14.13
2022-10-24T09:21:56.722Z,14.06
2022-10-24T09:22:56.978Z,14.12
2022-10-24T09:23:57.217Z,14.08
2022-10-24T09:24:56.949Z,14.12
2022-10-24T09:25:57.272Z,14.13
2022-10-24T09:26:57.191Z,14.06
2022-10-24T09:27:56.923Z,14.08
2022-10-24T09:28:56.920Z,14.11
2022-10-24T09:29:56.930Z,14.11
2022-10-24T09:30:56.912Z,14.09
2022-10-24T09:31:57.143Z,14.13
2022-10-24T09:32:57.138Z,14.13
2022-10-24T09:33:57.127Z,14.09
2022-10-24T09:34:56.856Z,14.06
2022-10-24T09:35:56.845Z,14.06
2022-10-24T09:36:56.844Z,14.08
2022-10-24T09:37:57.566Z,13.99
2022-10-24T09:38:56.829Z,14.06
2022-10-24T09:39:56.824Z,14.01
2022-10-24T09:40:57.075Z,14.03
2022-10-24T09:41:57.134Z,13.97
2022-10-24T09:42:56.787Z,13.95
2022-10-24T09:43:56.795Z,13.86
2022-10-24T09:44:56.770Z,13.9
2022-10-24T09:45:57.012Z,13.86
2022-10-24T09:46:56.752Z,13.78
2022-10-24T09:47:56.995Z,13.81
2022-10-24T09:48:56.984Z,13.69
2022-10-24T09:49:57.088Z,13.7
2022-10-24T09:50:56.716Z,13.68
2022-10-24T09:51:56.719Z,13.76
2022-10-24T09:52:56.442Z,13.7
2022-10-24T09:53:56.688Z,13.73
2022-10-24T09:54:56.419Z,13.66
2022-10-24T09:55:56.673Z,13.69
2022-10-24T09:56:59.417Z,13.58
2022-10-24T09:57:56.936Z,13.58
2022-10-24T09:58:56.641Z,13.65
2022-10-24T09:59:56.644Z,13.68
2022-10-24T10:00:56.644Z,13.57
2022-10-24T10:01:57.119Z,13.62
2022-10-24T10:02:56.599Z,13.55
2022-10-24T10:03:56.592Z,13.57
2022-10-24T10:04:56.581Z,13.6
2022-10-24T10:05:56.632Z,13.66
2022-10-24T10:06:57.061Z,13.57
2022-10-24T10:07:56.557Z,13.7
2022-10-24T10:08:56.800Z,13.65
2022-10-24T10:10:01.139Z,13.66
2022-10-24T10:10:56.850Z,13.63
2022-10-24T10:12:07.148Z,13.65
2022-10-24T10:12:56.249Z,13.69
2022-10-24T10:13:56.531Z,13.65
2022-10-24T10:14:56.247Z,13.75
2022-10-24T10:15:56.742Z,13.63
2022-10-24T10:17:56.210Z,13.7
2022-10-24T10:18:56.460Z,13.72
2022-10-24T10:19:56.696Z,13.72
2022-10-24T10:20:56.713Z,13.72
2022-10-24T10:21:56.443Z,13.73
2022-10-24T10:22:56.679Z,13.81
2022-10-24T10:23:56.184Z,13.72
2022-10-24T10:24:56.659Z,13.76
2022-10-24T10:25:56.678Z,13.81
2022-10-24T10:26:56.417Z,13.86
2022-10-24T10:27:58.724Z,13.81
2022-10-24T10:28:56.113Z,13.79
2022-10-24T10:29:56.640Z,13.79
2022-10-24T10:30:56.621Z,13.83
2022-10-24T10:31:56.372Z,13.79
2022-10-24T10:32:56.621Z,13.81
2022-10-24T10:33:56.391Z,13.84
2022-10-24T10:34:56.311Z,13.87
2022-10-24T10:35:56.569Z,13.9
2022-10-24T10:36:56.558Z,13.97
2022-10-24T10:37:56.285Z,13.94
2022-10-24T10:38:56.536Z,13.97
2022-10-24T10:39:56.258Z,14.05
2022-10-24T10:40:56.006Z,14.05
2022-10-24T10:42:56.232Z,14.11
2022-10-24T10:43:56.273Z,14.24
2022-10-24T10:44:56.471Z,14.24
2022-10-24T10:45:56.490Z,14.31
2022-10-24T10:46:56.201Z,14.41
2022-10-24T10:47:55.937Z,14.48
2022-10-24T10:48:56.441Z,14.45
2022-10-24T10:49:56.174Z,14.49
2022-10-24T10:50:56.186Z,14.6
2022-10-24T10:51:55.901Z,14.63
2022-10-24T10:52:56.146Z,14.63
2022-10-24T10:53:56.397Z,14.63
2022-10-24T10:54:56.386Z,14.66
2022-10-24T10:55:56.374Z,14.71
2022-10-24T10:56:55.861Z,14.57
2022-10-24T10:57:55.850Z,14.64
2022-10-24T10:58:56.093Z,14.71
2022-10-24T10:59:56.147Z,14.63
2022-10-24T11:00:56.357Z,14.69
2022-10-24T11:01:56.726Z,14.64
2022-10-24T11:02:58.237Z,14.66
2022-10-24T11:03:56.301Z,14.66
2022-10-24T11:04:56.300Z,14.59
2022-10-24T11:05:56.293Z,14.66
2022-10-24T11:06:56.237Z,14.67
2022-10-24T11:07:56.271Z,14.66
2022-10-24T11:08:56.032Z,14.7
2022-10-24T11:09:56.252Z,14.71
2022-10-24T11:10:55.992Z,14.64
2022-10-24T11:11:55.729Z,14.7
2022-10-24T11:12:55.978Z,14.63
2022-10-24T11:13:56.216Z,14.66
2022-10-24T11:14:56.220Z,14.7
2022-10-24T11:15:55.994Z,14.75
2022-10-24T11:16:56.193Z,14.71
2022-10-24T11:17:55.953Z,14.74
2022-10-24T11:18:55.927Z,14.85
2022-10-24T11:19:56.168Z,14.8
2022-10-24T11:20:55.904Z,14.8
2022-10-24T11:21:56.164Z,14.79
2022-10-24T11:22:56.149Z,14.8
2022-10-24T11:23:55.922Z,14.7
2022-10-24T11:24:55.880Z,14.7
2022-10-24T11:25:56.156Z,14.66
2022-10-24T11:26:56.113Z,14.69
2022-10-24T11:27:56.115Z,14.63
2022-10-24T11:28:55.837Z,14.7
2022-10-24T11:29:56.173Z,14.7
2022-10-24T11:30:55.594Z,14.63
2022-10-24T11:31:56.342Z,14.63
2022-10-24T11:32:55.551Z,14.69
2022-10-24T11:33:55.827Z,14.63
2022-10-24T11:34:55.791Z,14.63
2022-10-24T11:35:56.037Z,14.53
2022-10-24T11:36:59.999Z,14.6
2022-10-24T11:37:55.764Z,14.51
2022-10-24T11:38:55.754Z,14.61
2022-10-24T11:39:56.098Z,14.57
2022-10-24T11:41:02.932Z,14.56
2022-10-24T11:41:56.050Z,14.51
2022-10-24T11:42:55.856Z,14.49
2022-10-24T11:43:55.760Z,14.48
2022-10-24T11:44:55.715Z,14.52
2022-10-24T11:45:55.698Z,14.56
2022-10-24T11:46:55.690Z,14.49
2022-10-24T11:47:55.988Z,14.46
2022-10-24T11:48:55.932Z,14.51
2022-10-24T11:49:55.699Z,14.49
2022-10-24T11:50:55.657Z,14.52
2022-10-24T11:51:55.658Z,14.41
2022-10-24T11:52:55.893Z,14.42
2022-10-24T11:53:55.633Z,14.46
2022-10-24T11:54:55.368Z,14.46
2022-10-24T11:55:56.361Z,14.46
2022-10-24T11:56:56.844Z,14.41
2022-10-24T11:57:56.588Z,14.48
2022-10-24T11:58:56.576Z,14.44
2022-10-24T11:59:56.564Z,14.46
2022-10-24T12:00:56.562Z,14.44
2022-10-24T12:01:56.822Z,14.39
2022-10-24T12:02:56.786Z,14.39
2022-10-24T12:03:56.614Z,14.42
2022-10-24T12:04:56.528Z,14.56
2022-10-24T12:05:56.849Z,14.42
2022-10-24T12:06:56.787Z,14.48
2022-10-24T12:07:56.531Z,14.61
2022-10-24T12:08:56.755Z,14.51
2022-10-24T12:09:56.481Z,14.61
2022-10-24T12:10:56.730Z,14.66
2022-10-24T12:11:56.464Z,14.69
2022-10-24T12:12:56.847Z,14.74
2022-10-24T12:13:57.164Z,14.87
2022-10-24T12:14:56.699Z,14.89
2022-10-24T12:15:56.683Z,14.93
2022-10-24T12:16:56.419Z,14.97
2022-10-24T12:17:56.182Z,15.01
2022-10-24T12:18:56.717Z,15.01
2022-10-24T12:19:56.467Z,15.05
2022-10-24T12:20:56.689Z,15.04
2022-10-24T12:21:56.687Z,15.1
2022-10-24T12:22:56.402Z,15.05
2022-10-24T12:23:56.654Z,15.08
2022-10-24T12:24:56.638Z,15.1
2022-10-24T12:25:56.120Z,15.16
2022-10-24T12:26:56.621Z,15.07
2022-10-24T12:27:56.357Z,15.13
2022-10-24T12:28:56.380Z,15.08
2022-10-24T12:29:56.590Z,15.08
2022-10-24T12:30:56.339Z,15.16
2022-10-24T12:31:56.326Z,15.15
2022-10-24T12:32:56.058Z,15.12
2022-10-24T12:33:56.565Z,15.08
2022-10-24T12:35:36.075Z,15.27
2022-10-24T12:35:56.340Z,15.15
2022-10-24T12:36:56.544Z,15.15
2022-10-24T12:37:56.554Z,15.2
2022-10-24T12:38:56.524Z,15.25
2022-10-24T12:40:03.081Z,15.22
2022-10-24T12:40:56.516Z,15.31
2022-10-24T12:41:56.243Z,15.4
2022-10-24T12:42:56.236Z,15.37
2022-10-24T12:43:56.485Z,15.4
2022-10-24T12:44:56.226Z,15.37
2022-10-24T12:45:56.469Z,15.35
2022-10-24T12:46:55.952Z,15.34
2022-10-24T12:48:56.451Z,15.33
2022-10-24T12:49:56.475Z,15.4
2022-10-24T12:50:56.485Z,15.41
2022-10-24T12:51:56.168Z,15.43
2022-10-24T12:52:56.160Z,15.45
2022-10-24T12:53:56.171Z,15.43
2022-10-24T12:54:56.403Z,15.44
2022-10-24T12:55:55.882Z,15.44
2022-10-24T12:56:56.193Z,15.49
2022-10-24T12:57:56.125Z,15.53
2022-10-24T12:58:56.297Z,15.55
2022-10-24T12:59:55.849Z,15.58
2022-10-24T13:00:56.357Z,15.51
2022-10-24T13:01:58.829Z,15.56
2022-10-24T13:02:56.592Z,15.53
2022-10-24T13:03:56.083Z,15.45
2022-10-24T13:04:56.079Z,15.49
2022-10-24T13:05:55.802Z,15.45
2022-10-24T13:06:56.361Z,15.45
2022-10-24T13:07:57.347Z,15.35
2022-10-24T13:08:56.041Z,15.41
2022-10-24T13:09:56.309Z,15.45
2022-10-24T13:10:56.017Z,15.43
2022-10-24T13:11:59.256Z,15.43
2022-10-24T13:12:56.049Z,15.44
2022-10-24T13:13:59.428Z,15.43
2022-10-24T13:14:55.994Z,15.45
2022-10-24T13:15:56.242Z,15.44
2022-10-24T13:16:55.978Z,15.51
2022-10-24T13:17:55.973Z,15.56